EJU1687 LFMN-LIRF
Flight info
| Callsign | EJU1687 |
|---|---|
| Flight time | 0h 47m |
| Altitude | 29000 |
| Route | SODRI DCT RAPUR DCT RATAP DCT BTA/N0380F280 DCT MOULE DCT XOPTA DCT ELB DCT ELKAP |
| Aircraft | A320/M-SDE2E3FGHIJ1RWXYZ/LB1 |
Departure
| Time | 2026-05-05 14:28 |
|---|---|
| Airport | Nice-Côte d'Azur Airport (LFMN) |
Arrival
| Time | 2026-05-05 15:15 |
|---|---|
| Airport | Rome–Fiumicino Leonardo da Vinci International Airport (LIRF) |
| Time | Latitude | Longitude | Altitude | Speed | Heading |
|---|---|---|---|---|---|
| 2026-05-05 13:52 | 43.66047 | 7.20710 | 21 ft | 0 kts | 290° |
| 2026-05-05 14:17 | 43.66046 | 7.20712 | 21 ft | 2 kts | 290° |
| 2026-05-05 14:18 | 43.66037 | 7.20745 | 21 ft | 4 kts | 291° |
| 2026-05-05 14:18 | 43.66029 | 7.20774 | 25 ft | 4 kts | 276° |
| 2026-05-05 14:18 | 43.66035 | 7.20802 | 21 ft | 4 kts | 200° |
| 2026-05-05 14:18 | 43.66061 | 7.20804 | 21 ft | 4 kts | 171° |
| 2026-05-05 14:19 | 43.66071 | 7.20802 | 21 ft | 0 kts | 171° |
| 2026-05-05 14:20 | 43.66069 | 7.20802 | 21 ft | 2 kts | 171° |
| 2026-05-05 14:21 | 43.66040 | 7.20809 | 22 ft | 7 kts | 171° |
| 2026-05-05 14:21 | 43.65987 | 7.20821 | 21 ft | 9 kts | 170° |
| 2026-05-05 14:21 | 43.65920 | 7.20838 | 21 ft | 11 kts | 170° |
| 2026-05-05 14:21 | 43.65839 | 7.20854 | 21 ft | 12 kts | 171° |
| 2026-05-05 14:22 | 43.65759 | 7.20866 | 21 ft | 11 kts | 193° |
| 2026-05-05 14:22 | 43.65702 | 7.20799 | 21 ft | 11 kts | 225° |
| 2026-05-05 14:22 | 43.65650 | 7.20729 | 21 ft | 10 kts | 225° |
| 2026-05-05 14:22 | 43.65601 | 7.20662 | 21 ft | 10 kts | 225° |
| 2026-05-05 14:23 | 43.65555 | 7.20598 | 21 ft | 9 kts | 225° |
| 2026-05-05 14:23 | 43.65512 | 7.20538 | 21 ft | 9 kts | 225° |
| 2026-05-05 14:23 | 43.65471 | 7.20483 | 21 ft | 8 kts | 225° |
| 2026-05-05 14:23 | 43.65435 | 7.20432 | 21 ft | 7 kts | 225° |
| 2026-05-05 14:24 | 43.65403 | 7.20389 | 23 ft | 6 kts | 225° |
| 2026-05-05 14:24 | 43.65378 | 7.20353 | 21 ft | 5 kts | 225° |
| 2026-05-05 14:24 | 43.65354 | 7.20321 | 21 ft | 5 kts | 225° |
| 2026-05-05 14:24 | 43.65314 | 7.20293 | 22 ft | 8 kts | 189° |
| 2026-05-05 14:25 | 43.65246 | 7.20334 | 21 ft | 14 kts | 135° |
| 2026-05-05 14:25 | 43.65169 | 7.20441 | 21 ft | 17 kts | 137° |
| 2026-05-05 14:25 | 43.65053 | 7.20445 | 21 ft | 20 kts | 217° |
| 2026-05-05 14:25 | 43.64947 | 7.20300 | 21 ft | 23 kts | 225° |
| 2026-05-05 14:26 | 43.64846 | 7.20161 | 21 ft | 14 kts | 224° |
| 2026-05-05 14:26 | 43.64752 | 7.20162 | 22 ft | 16 kts | 139° |
| 2026-05-05 14:26 | 43.64693 | 7.20247 | 24 ft | 8 kts | 129° |
| 2026-05-05 14:26 | 43.64707 | 7.20295 | 23 ft | 6 kts | 45° |
| 2026-05-05 14:27 | 43.64716 | 7.20308 | 23 ft | 3 kts | 45° |
| 2026-05-05 14:27 | 43.64875 | 7.20528 | 24 ft | 70 kts | 45° |
| 2026-05-05 14:27 | 43.65378 | 7.21219 | 24 ft | 130 kts | 45° |
| 2026-05-05 14:27 | 43.66099 | 7.22220 | 376 ft | 149 kts | 48° |
| 2026-05-05 14:28 | 43.66708 | 7.23346 | 1099 ft | 148 kts | 73° |
| 2026-05-05 14:28 | 43.66748 | 7.24744 | 1745 ft | 150 kts | 108° |
| 2026-05-05 14:28 | 43.66187 | 7.25949 | 2325 ft | 151 kts | 138° |
| 2026-05-05 14:28 | 43.65425 | 7.26932 | 2964 ft | 149 kts | 138° |
| 2026-05-05 14:29 | 43.64652 | 7.27935 | 3449 ft | 161 kts | 139° |
| 2026-05-05 14:29 | 43.63789 | 7.29056 | 3806 ft | 179 kts | 139° |
| 2026-05-05 14:29 | 43.62831 | 7.30308 | 4148 ft | 199 kts | 139° |
| 2026-05-05 14:29 | 43.61772 | 7.31688 | 4456 ft | 220 kts | 139° |
| 2026-05-05 14:30 | 43.60640 | 7.33166 | 5145 ft | 226 kts | 139° |
| 2026-05-05 14:30 | 43.59624 | 7.34803 | 5979 ft | 230 kts | 130° |
| 2026-05-05 14:30 | 43.58594 | 7.36639 | 6394 ft | 254 kts | 130° |
| 2026-05-05 14:30 | 43.57459 | 7.38652 | 6832 ft | 275 kts | 130° |
| 2026-05-05 14:31 | 43.56265 | 7.40775 | 7594 ft | 283 kts | 130° |
| 2026-05-05 14:31 | 43.55049 | 7.42944 | 8459 ft | 288 kts | 130° |
| 2026-05-05 14:31 | 43.54217 | 7.44426 | 9046 ft | 291 kts | 131° |
| 2026-05-05 14:31 | 43.52969 | 7.46649 | 9906 ft | 296 kts | 131° |
| 2026-05-05 14:32 | 43.51241 | 7.49718 | 10493 ft | 321 kts | 131° |
| 2026-05-05 14:32 | 43.49830 | 7.52209 | 10958 ft | 336 kts | 131° |
| 2026-05-05 14:32 | 43.48856 | 7.53933 | 11442 ft | 340 kts | 131° |
| 2026-05-05 14:32 | 43.47398 | 7.56525 | 12230 ft | 344 kts | 132° |
| 2026-05-05 14:33 | 43.45924 | 7.59147 | 13022 ft | 348 kts | 133° |
| 2026-05-05 14:33 | 43.44431 | 7.61796 | 13781 ft | 353 kts | 133° |
| 2026-05-05 14:33 | 43.42917 | 7.64478 | 14463 ft | 356 kts | 133° |
| 2026-05-05 14:33 | 43.41391 | 7.67176 | 15150 ft | 359 kts | 133° |
| 2026-05-05 14:34 | 43.39851 | 7.69900 | 15845 ft | 362 kts | 133° |
| 2026-05-05 14:34 | 43.38298 | 7.72642 | 16540 ft | 365 kts | 133° |
| 2026-05-05 14:34 | 43.36733 | 7.75403 | 17222 ft | 368 kts | 133° |
| 2026-05-05 14:34 | 43.35149 | 7.78190 | 17897 ft | 371 kts | 133° |
| 2026-05-05 14:35 | 43.33554 | 7.80995 | 18516 ft | 374 kts | 133° |
| 2026-05-05 14:35 | 43.31944 | 7.83824 | 19076 ft | 378 kts | 134° |
| 2026-05-05 14:35 | 43.30316 | 7.86680 | 19622 ft | 382 kts | 134° |
| 2026-05-05 14:35 | 43.28671 | 7.89568 | 20154 ft | 386 kts | 134° |
| 2026-05-05 14:36 | 43.27011 | 7.92482 | 20689 ft | 390 kts | 134° |
| 2026-05-05 14:36 | 43.25329 | 7.95425 | 21212 ft | 393 kts | 134° |
| 2026-05-05 14:36 | 43.23633 | 7.98390 | 21721 ft | 397 kts | 134° |
| 2026-05-05 14:36 | 43.21921 | 8.01380 | 22213 ft | 401 kts | 134° |
| 2026-05-05 14:37 | 43.20191 | 8.04400 | 22719 ft | 404 kts | 135° |
| 2026-05-05 14:37 | 43.18447 | 8.07445 | 23225 ft | 408 kts | 135° |
| 2026-05-05 14:37 | 43.16690 | 8.10519 | 23682 ft | 411 kts | 135° |
| 2026-05-05 14:37 | 43.14915 | 8.13616 | 24089 ft | 415 kts | 135° |
| 2026-05-05 14:38 | 43.13128 | 8.16728 | 24494 ft | 418 kts | 135° |
| 2026-05-05 14:38 | 43.11321 | 8.19866 | 24901 ft | 421 kts | 135° |
| 2026-05-05 14:38 | 43.09503 | 8.23024 | 25296 ft | 424 kts | 135° |
| 2026-05-05 14:38 | 43.07673 | 8.26201 | 25688 ft | 427 kts | 135° |
| 2026-05-05 14:39 | 43.05823 | 8.29400 | 26076 ft | 430 kts | 135° |
| 2026-05-05 14:39 | 43.03958 | 8.32613 | 26456 ft | 433 kts | 136° |
| 2026-05-05 14:39 | 43.02077 | 8.35856 | 26831 ft | 437 kts | 134° |
| 2026-05-05 14:39 | 43.00415 | 8.39396 | 27184 ft | 449 kts | 125° |
| 2026-05-05 14:40 | 42.98938 | 8.43177 | 27535 ft | 453 kts | 124° |
| 2026-05-05 14:40 | 42.97451 | 8.46988 | 27888 ft | 456 kts | 125° |
| 2026-05-05 14:40 | 42.95952 | 8.50819 | 28233 ft | 459 kts | 125° |
| 2026-05-05 14:40 | 42.94438 | 8.54674 | 28568 ft | 463 kts | 125° |
| 2026-05-05 14:41 | 42.92908 | 8.58559 | 28883 ft | 466 kts | 125° |
| 2026-05-05 14:41 | 42.91382 | 8.62441 | 28960 ft | 459 kts | 125° |
| 2026-05-05 14:41 | 42.89931 | 8.66159 | 28959 ft | 443 kts | 125° |
| 2026-05-05 14:41 | 42.88494 | 8.69834 | 28956 ft | 437 kts | 125° |
| 2026-05-05 14:42 | 42.85623 | 8.77085 | 28955 ft | 433 kts | 126° |
| 2026-05-05 14:42 | 42.82746 | 8.84296 | 28953 ft | 433 kts | 126° |
| 2026-05-05 14:43 | 42.79866 | 8.91509 | 28957 ft | 433 kts | 126° |
| 2026-05-05 14:43 | 42.76987 | 8.98710 | 28956 ft | 433 kts | 126° |
| 2026-05-05 14:44 | 42.74124 | 9.05925 | 28948 ft | 435 kts | 122° |
| 2026-05-05 14:44 | 42.73027 | 9.09794 | 28949 ft | 443 kts | 111° |
| 2026-05-05 14:44 | 42.72426 | 9.13927 | 28956 ft | 449 kts | 99° |
| 2026-05-05 14:45 | 42.72354 | 9.22458 | 28960 ft | 452 kts | 93° |
| 2026-05-05 14:45 | 42.72392 | 9.30994 | 28965 ft | 452 kts | 93° |
| 2026-05-05 14:46 | 42.72418 | 9.39543 | 28977 ft | 452 kts | 93° |
| 2026-05-05 14:46 | 42.72428 | 9.48078 | 28974 ft | 451 kts | 93° |
| 2026-05-05 14:47 | 42.72440 | 9.56605 | 28976 ft | 451 kts | 93° |
| 2026-05-05 14:47 | 42.72470 | 9.65130 | 28974 ft | 451 kts | 92° |
| 2026-05-05 14:48 | 42.72497 | 9.73641 | 28965 ft | 450 kts | 92° |
| 2026-05-05 14:48 | 42.72494 | 9.82143 | 28959 ft | 449 kts | 93° |
| 2026-05-05 14:49 | 42.72485 | 9.90639 | 28955 ft | 449 kts | 92° |
| 2026-05-05 14:49 | 42.72466 | 9.99132 | 28956 ft | 449 kts | 92° |
| 2026-05-05 14:50 | 42.72433 | 10.07675 | 28954 ft | 448 kts | 93° |
| 2026-05-05 14:50 | 42.72406 | 10.16097 | 28664 ft | 439 kts | 92° |
| 2026-05-05 14:51 | 42.72395 | 10.20159 | 28238 ft | 434 kts | 92° |
| 2026-05-05 14:51 | 42.72381 | 10.24240 | 27798 ft | 429 kts | 92° |
| 2026-05-05 14:51 | 42.72364 | 10.28280 | 27358 ft | 425 kts | 92° |
| 2026-05-05 14:51 | 42.72341 | 10.32283 | 26934 ft | 421 kts | 93° |
| 2026-05-05 14:52 | 42.72313 | 10.36240 | 26510 ft | 417 kts | 93° |
| 2026-05-05 14:52 | 42.72286 | 10.40170 | 26110 ft | 413 kts | 92° |
| 2026-05-05 14:52 | 42.72262 | 10.44061 | 25712 ft | 410 kts | 92° |
| 2026-05-05 14:52 | 42.72241 | 10.47914 | 25307 ft | 406 kts | 92° |
| 2026-05-05 14:53 | 42.72220 | 10.51739 | 24912 ft | 402 kts | 92° |
| 2026-05-05 14:53 | 42.72194 | 10.55526 | 24523 ft | 399 kts | 92° |
| 2026-05-05 14:53 | 42.72155 | 10.59276 | 24136 ft | 395 kts | 95° |
| 2026-05-05 14:53 | 42.71797 | 10.62942 | 23764 ft | 388 kts | 106° |
| 2026-05-05 14:54 | 42.70991 | 10.66395 | 23358 ft | 380 kts | 117° |
| 2026-05-05 14:54 | 42.69785 | 10.69550 | 22918 ft | 373 kts | 126° |
| 2026-05-05 14:54 | 42.68418 | 10.72529 | 22470 ft | 370 kts | 126° |
| 2026-05-05 14:54 | 42.67056 | 10.75482 | 22050 ft | 367 kts | 126° |
| 2026-05-05 14:55 | 42.65706 | 10.78411 | 21626 ft | 365 kts | 126° |
| 2026-05-05 14:55 | 42.64370 | 10.81320 | 21223 ft | 362 kts | 126° |
| 2026-05-05 14:55 | 42.63043 | 10.84211 | 20820 ft | 359 kts | 126° |
| 2026-05-05 14:55 | 42.61727 | 10.87081 | 20431 ft | 357 kts | 126° |
| 2026-05-05 14:56 | 42.60417 | 10.89930 | 20039 ft | 354 kts | 126° |
| 2026-05-05 14:56 | 42.59116 | 10.92757 | 19671 ft | 352 kts | 126° |
| 2026-05-05 14:56 | 42.57824 | 10.95566 | 19307 ft | 350 kts | 126° |
| 2026-05-05 14:56 | 42.56538 | 10.98355 | 18941 ft | 347 kts | 126° |
| 2026-05-05 14:57 | 42.55260 | 11.01123 | 18589 ft | 345 kts | 125° |
| 2026-05-05 14:57 | 42.53987 | 11.03876 | 18246 ft | 343 kts | 125° |
| 2026-05-05 14:57 | 42.52723 | 11.06611 | 17858 ft | 341 kts | 125° |
| 2026-05-05 14:57 | 42.51466 | 11.09331 | 17473 ft | 339 kts | 125° |
| 2026-05-05 14:58 | 42.50214 | 11.12029 | 17120 ft | 338 kts | 126° |
| 2026-05-05 14:58 | 42.48964 | 11.14714 | 16996 ft | 337 kts | 126° |
| 2026-05-05 14:58 | 42.47712 | 11.17404 | 17011 ft | 338 kts | 126° |
| 2026-05-05 14:58 | 42.46461 | 11.20099 | 17014 ft | 338 kts | 126° |
| 2026-05-05 14:59 | 42.45219 | 11.22802 | 17014 ft | 339 kts | 122° |
| 2026-05-05 14:59 | 42.44248 | 11.25720 | 17018 ft | 342 kts | 111° |
| 2026-05-05 14:59 | 42.43700 | 11.28864 | 17019 ft | 345 kts | 100° |
| 2026-05-05 14:59 | 42.43351 | 11.32075 | 17022 ft | 345 kts | 100° |
| 2026-05-05 15:00 | 42.42995 | 11.35288 | 17024 ft | 345 kts | 101° |
| 2026-05-05 15:00 | 42.42755 | 11.37418 | 16905 ft | 346 kts | 101° |
| 2026-05-05 15:00 | 42.42267 | 11.41701 | 16559 ft | 343 kts | 101° |
| 2026-05-05 15:00 | 42.41904 | 11.44886 | 16225 ft | 343 kts | 101° |
| 2026-05-05 15:01 | 42.41540 | 11.48080 | 15791 ft | 344 kts | 101° |
| 2026-05-05 15:01 | 42.41174 | 11.51280 | 15436 ft | 343 kts | 101° |
| 2026-05-05 15:01 | 42.40811 | 11.54466 | 15036 ft | 343 kts | 101° |
| 2026-05-05 15:01 | 42.40451 | 11.57631 | 14756 ft | 339 kts | 101° |
| 2026-05-05 15:02 | 42.40081 | 11.60775 | 14416 ft | 336 kts | 101° |
| 2026-05-05 15:02 | 42.39686 | 11.63885 | 13986 ft | 334 kts | 102° |
| 2026-05-05 15:02 | 42.39275 | 11.66970 | 13522 ft | 333 kts | 102° |
| 2026-05-05 15:02 | 42.38861 | 11.70032 | 13068 ft | 330 kts | 102° |
| 2026-05-05 15:03 | 42.38451 | 11.73069 | 12606 ft | 327 kts | 102° |
| 2026-05-05 15:03 | 42.38046 | 11.76082 | 12143 ft | 324 kts | 102° |
| 2026-05-05 15:03 | 42.37649 | 11.79070 | 11702 ft | 322 kts | 102° |
| 2026-05-05 15:03 | 42.37253 | 11.82037 | 11251 ft | 319 kts | 102° |
| 2026-05-05 15:04 | 42.36865 | 11.84975 | 10850 ft | 315 kts | 102° |
| 2026-05-05 15:04 | 42.36487 | 11.87837 | 10676 ft | 303 kts | 102° |
| 2026-05-05 15:04 | 42.36094 | 11.90563 | 10542 ft | 287 kts | 109° |
| 2026-05-05 15:04 | 42.35224 | 11.92872 | 10414 ft | 267 kts | 134° |
| 2026-05-05 15:05 | 42.32287 | 11.95326 | 9838 ft | 243 kts | 168° |
| 2026-05-05 15:05 | 42.30685 | 11.95992 | 9533 ft | 239 kts | 167° |
| 2026-05-05 15:05 | 42.29104 | 11.96660 | 9250 ft | 237 kts | 167° |
| 2026-05-05 15:06 | 42.27533 | 11.97329 | 8967 ft | 236 kts | 167° |
| 2026-05-05 15:06 | 42.25962 | 11.97999 | 8557 ft | 238 kts | 167° |
| 2026-05-05 15:06 | 42.24285 | 11.98706 | 8141 ft | 269 kts | 167° |
| 2026-05-05 15:06 | 42.22469 | 11.99472 | 7680 ft | 276 kts | 166° |
| 2026-05-05 15:07 | 42.20638 | 12.00254 | 7285 ft | 275 kts | 166° |
| 2026-05-05 15:07 | 42.18816 | 12.01033 | 6901 ft | 275 kts | 166° |
| 2026-05-05 15:07 | 42.16996 | 12.01811 | 6514 ft | 274 kts | 166° |
| 2026-05-05 15:07 | 42.15186 | 12.02588 | 6117 ft | 272 kts | 166° |
| 2026-05-05 15:08 | 42.13388 | 12.03360 | 5711 ft | 271 kts | 166° |
| 2026-05-05 15:08 | 42.11678 | 12.04423 | 5314 ft | 274 kts | 147° |
| 2026-05-05 15:08 | 42.10306 | 12.06222 | 4923 ft | 276 kts | 136° |
| 2026-05-05 15:08 | 42.09000 | 12.08130 | 4509 ft | 278 kts | 135° |
| 2026-05-05 15:09 | 42.07694 | 12.10047 | 4105 ft | 276 kts | 135° |
| 2026-05-05 15:09 | 42.06418 | 12.11925 | 3703 ft | 267 kts | 136° |
| 2026-05-05 15:09 | 42.05211 | 12.13703 | 3462 ft | 248 kts | 136° |
| 2026-05-05 15:09 | 42.04086 | 12.15362 | 3210 ft | 232 kts | 136° |
| 2026-05-05 15:10 | 42.03032 | 12.16910 | 2955 ft | 218 kts | 136° |
| 2026-05-05 15:10 | 42.02027 | 12.18362 | 2702 ft | 205 kts | 140° |
| 2026-05-05 15:10 | 42.00878 | 12.19317 | 2564 ft | 186 kts | 163° |
| 2026-05-05 15:10 | 41.99664 | 12.19820 | 2555 ft | 181 kts | 164° |
| 2026-05-05 15:11 | 41.98511 | 12.20306 | 2548 ft | 165 kts | 165° |
| 2026-05-05 15:11 | 41.97446 | 12.20754 | 2531 ft | 157 kts | 165° |
| 2026-05-05 15:11 | 41.96414 | 12.21187 | 2444 ft | 155 kts | 165° |
| 2026-05-05 15:11 | 41.95388 | 12.21618 | 2281 ft | 154 kts | 164° |
| 2026-05-05 15:12 | 41.94368 | 12.22047 | 2104 ft | 153 kts | 165° |
| 2026-05-05 15:12 | 41.93372 | 12.22465 | 1895 ft | 147 kts | 164° |
| 2026-05-05 15:12 | 41.92418 | 12.22867 | 1704 ft | 141 kts | 164° |
| 2026-05-05 15:12 | 41.91509 | 12.23250 | 1534 ft | 132 kts | 163° |
| 2026-05-05 15:13 | 41.90650 | 12.23610 | 1356 ft | 128 kts | 162° |
| 2026-05-05 15:13 | 41.90091 | 12.23845 | 1238 ft | 126 kts | 162° |
| 2026-05-05 15:13 | 41.89255 | 12.24195 | 1063 ft | 126 kts | 162° |
| 2026-05-05 15:13 | 41.88343 | 12.24578 | 837 ft | 125 kts | 162° |
| 2026-05-05 15:14 | 41.88154 | 12.24664 | 796 ft | 125 kts | 159° |
| 2026-05-05 15:14 | 41.87326 | 12.25018 | 629 ft | 125 kts | 162° |
| 2026-05-05 15:14 | 41.86498 | 12.25359 | 458 ft | 125 kts | 162° |
| 2026-05-05 15:14 | 41.85668 | 12.25703 | 292 ft | 125 kts | 161° |
| 2026-05-05 15:15 | 41.84840 | 12.26048 | 124 ft | 124 kts | 161° |
| 2026-05-05 15:15 | 41.84023 | 12.26392 | 27 ft | 122 kts | 160° |
| 2026-05-05 15:15 | 41.83329 | 12.26684 | 15 ft | 82 kts | 162° |
| 2026-05-05 15:15 | 41.82948 | 12.26844 | 15 ft | 33 kts | 163° |
| 2026-05-05 15:16 | 41.82752 | 12.26876 | 16 ft | 27 kts | 181° |
| 2026-05-05 15:16 | 41.82570 | 12.26832 | 15 ft | 27 kts | 192° |
| 2026-05-05 15:16 | 41.82388 | 12.26780 | 15 ft | 27 kts | 185° |
| 2026-05-05 15:16 | 41.82208 | 12.26830 | 16 ft | 26 kts | 162° |
| 2026-05-05 15:17 | 41.82035 | 12.26902 | 15 ft | 26 kts | 162° |
| 2026-05-05 15:17 | 41.81865 | 12.26973 | 15 ft | 25 kts | 163° |
| 2026-05-05 15:17 | 41.81696 | 12.27043 | 15 ft | 26 kts | 163° |
| 2026-05-05 15:17 | 41.81526 | 12.27115 | 15 ft | 25 kts | 162° |
| 2026-05-05 15:18 | 41.81357 | 12.27185 | 15 ft | 25 kts | 162° |
| 2026-05-05 15:18 | 41.81188 | 12.27257 | 15 ft | 25 kts | 163° |
| 2026-05-05 15:18 | 41.81020 | 12.27327 | 17 ft | 25 kts | 162° |
| 2026-05-05 15:18 | 41.80847 | 12.27337 | 15 ft | 25 kts | 189° |
| 2026-05-05 15:19 | 41.80680 | 12.27270 | 15 ft | 25 kts | 226° |
| 2026-05-05 15:19 | 41.80607 | 12.27045 | 15 ft | 27 kts | 249° |
| 2026-05-05 15:19 | 41.80539 | 12.26796 | 16 ft | 29 kts | 250° |
| 2026-05-05 15:19 | 41.80468 | 12.26538 | 17 ft | 26 kts | 250° |
| 2026-05-05 15:20 | 41.80414 | 12.26388 | 15 ft | 16 kts | 223° |
| 2026-05-05 15:20 | 41.80310 | 12.26391 | 15 ft | 17 kts | 159° |
| 2026-05-05 15:20 | 41.80195 | 12.26394 | 17 ft | 18 kts | 206° |
| 2026-05-05 15:20 | 41.80075 | 12.26321 | 15 ft | 20 kts | 205° |
| 2026-05-05 15:21 | 41.79944 | 12.26239 | 16 ft | 21 kts | 205° |
| 2026-05-05 15:21 | 41.79838 | 12.26173 | 15 ft | 14 kts | 204° |
| 2026-05-05 15:21 | 41.79766 | 12.26094 | 15 ft | 15 kts | 258° |
| 2026-05-05 15:21 | 41.79801 | 12.25968 | 15 ft | 14 kts | 295° |
| 2026-05-05 15:22 | 41.79843 | 12.25852 | 15 ft | 12 kts | 294° |
| 2026-05-05 15:22 | 41.79828 | 12.25781 | 16 ft | 9 kts | 205° |
| 2026-05-05 15:22 | 41.79768 | 12.25744 | 15 ft | 11 kts | 205° |
| 2026-05-05 15:22 | 41.79714 | 12.25704 | 15 ft | 6 kts | 234° |
| 2026-05-05 15:23 | 41.79720 | 12.25662 | 15 ft | 2 kts | 291° |
| 2026-05-05 15:23 | 41.79727 | 12.25643 | 17 ft | 2 kts | 296° |
| 2026-05-05 15:23 | 41.79727 | 12.25642 | 17 ft | 0 kts | 295° |